Time;durP1;ratioP1;P1;durP2;ratioP2;P2;SDS_P1;SDS_P2;PMS_P1;PMS_P2;Temp;Humidity;BMP_temperature;BMP_pressure;BME280_temperature;BME280_humidity;BME280_pressure;Samples;Min_cycle;Max_cycle;Signal;HPM_P1;HPM_P2
2021/10/23 00:01:08;;;;;;;2.53;2.03;;;9.70;88.90;;;;;;4938529;29;20027;-78
2021/10/23 00:03:35;;;;;;;4.70;2.70;;;9.70;89.30;;;;;;4939031;29;20036;-78
2021/10/23 00:06:03;;;;;;;5.10;3.00;;;9.70;89.40;;;;;;4939769;29;20031;-78
2021/10/23 00:08:30;;;;;;;3.47;1.77;;;9.60;89.90;;;;;;4939686;29;20027;-78
2021/10/23 00:10:56;;;;;;;5.43;2.25;;;9.60;89.80;;;;;;4938327;29;20019;-77
2021/10/23 00:13:22;;;;;;;6.68;2.30;;;9.70;90.00;;;;;;4939291;29;20040;-77
2021/10/23 00:15:50;;;;;;;5.45;2.30;;;9.70;89.60;;;;;;4952738;28;20035;-76
2021/10/23 00:18:16;;;;;;;6.43;2.72;;;9.60;90.00;;;;;;4937657;29;20043;-77
2021/10/23 00:20:42;;;;;;;3.13;2.03;;;9.60;90.00;;;;;;4968989;28;20048;-77
2021/10/23 00:23:09;;;;;;;3.33;2.22;;;9.60;90.00;;;;;;4939690;29;20036;-77
2021/10/23 00:25:35;;;;;;;4.82;2.53;;;9.60;90.00;;;;;;4938110;29;20397;-77
2021/10/23 00:28:02;;;;;;;6.75;2.45;;;9.60;90.30;;;;;;4952839;28;20047;-77
2021/10/23 00:30:28;;;;;;;6.38;1.80;;;9.60;90.20;;;;;;4952578;28;20069;-77
2021/10/23 00:32:56;;;;;;;9.50;2.38;;;9.60;90.30;;;;;;4938072;29;20032;-77
2021/10/23 00:35:22;;;;;;;3.03;2.08;;;9.50;90.30;;;;;;4955805;29;20031;-77
2021/10/23 00:37:48;;;;;;;3.28;2.03;;;9.50;90.30;;;;;;4943314;29;20066;-77
2021/10/23 00:40:14;;;;;;;3.20;1.80;;;9.50;90.40;;;;;;4953652;29;20040;-77
2021/10/23 00:42:41;;;;;;;5.60;2.78;;;9.60;90.50;;;;;;4936180;29;20054;-77
2021/10/23 00:45:07;;;;;;;4.32;2.20;;;9.50;90.50;;;;;;4936758;29;20035;-75
2021/10/23 00:47:34;;;;;;;4.15;2.38;;;9.50;90.70;;;;;;4936764;29;20044;-76
2021/10/23 00:50:00;;;;;;;3.58;2.30;;;9.40;90.80;;;;;;4937278;29;20023;-75
2021/10/23 00:52:26;;;;;;;4.72;2.80;;;9.40;90.80;;;;;;4935486;29;20031;-75
2021/10/23 00:54:53;;;;;;;4.80;2.28;;;9.40;90.80;;;;;;4950749;28;20457;-75
2021/10/23 00:57:19;;;;;;;3.40;2.30;;;9.50;90.90;;;;;;4936109;29;20056;-76
2021/10/23 00:59:45;;;;;;;6.90;2.40;;;9.50;91.00;;;;;;4947916;29;20456;-76
2021/10/23 01:02:12;;;;;;;5.25;2.58;;;9.40;91.20;;;;;;4947100;29;20449;-76
2021/10/23 01:04:40;;;;;;;2.75;2.15;;;9.30;91.50;;;;;;4935775;29;20474;-77
2021/10/23 01:07:07;;;;;;;4.80;2.20;;;9.30;92.00;;;;;;4937824;29;20044;-77
2021/10/23 01:09:37;;;;;;;3.25;2.60;;;9.20;92.30;;;;;;4951017;28;20449;-78
2021/10/23 01:12:11;;;;;;;4.03;2.60;;;9.20;92.60;;;;;;4944503;29;20032;-78
2021/10/23 01:14:42;;;;;;;4.20;2.58;;;9.10;92.90;;;;;;4945256;29;20039;-78
2021/10/23 01:17:08;;;;;;;4.07;2.70;;;9.10;93.10;;;;;;4950741;28;20124;-78
2021/10/23 01:19:35;;;;;;;2.95;2.33;;;9.10;93.40;;;;;;4940667;29;20038;-78
2021/10/23 01:22:02;;;;;;;3.38;1.58;;;9.10;93.60;;;;;;4954453;29;20039;-78
2021/10/23 01:24:30;;;;;;;4.45;2.30;;;9.20;94.00;;;;;;4952838;28;20047;-79
2021/10/23 01:26:56;;;;;;;3.33;2.58;;;9.10;93.80;;;;;;4937842;29;20042;-78
2021/10/23 01:29:23;;;;;;;7.30;2.35;;;9.10;93.90;;;;;;4936397;29;20035;-78
2021/10/23 01:31:52;;;;;;;3.53;2.08;;;9.00;94.20;;;;;;4935344;29;20389;-78
2021/10/23 01:34:24;;;;;;;3.65;2.53;;;9.10;94.50;;;;;;4950876;28;20039;-78
2021/10/23 01:36:57;;;;;;;5.38;2.42;;;9.10;94.70;;;;;;4950122;29;20047;-78
2021/10/23 01:39:24;;;;;;;4.18;2.13;;;9.00;95.00;;;;;;4954007;28;20046;-78
2021/10/23 01:41:51;;;;;;;2.63;1.88;;;9.00;95.50;;;;;;4970846;28;20027;-79
2021/10/23 01:44:18;;;;;;;5.25;2.63;;;9.00;95.90;;;;;;4940035;29;20047;-78
2021/10/23 01:46:44;;;;;;;3.42;2.17;;;8.90;96.10;;;;;;4943085;29;20044;-78
2021/10/23 01:49:11;;;;;;;6.30;3.22;;;8.90;96.20;;;;;;4945695;29;20036;-78
2021/10/23 01:51:40;;;;;;;4.22;2.38;;;8.90;96.40;;;;;;4939250;29;20043;-78
2021/10/23 01:54:09;;;;;;;4.47;2.63;;;8.90;96.50;;;;;;4943217;28;20031;-78
2021/10/23 01:56:39;;;;;;;4.80;2.50;;;8.90;96.90;;;;;;4954333;29;20119;-79
2021/10/23 01:59:06;;;;;;;6.32;3.63;;;8.90;97.30;;;;;;4954906;29;20035;-78
2021/10/23 02:01:32;;;;;;;2.42;1.88;;;8.80;98.00;;;;;;4952341;28;20058;-78
2021/10/23 02:03:59;;;;;;;5.05;2.90;;;8.80;98.50;;;;;;4935322;29;20027;-78
2021/10/23 02:06:25;;;;;;;5.45;2.33;;;8.70;99.40;;;;;;4935438;29;20048;-78
2021/10/23 02:08:51;;;;;;;4.75;2.60;;;8.60;99.90;;;;;;4934884;29;20031;-78
2021/10/23 02:11:18;;;;;;;5.38;2.25;;;8.50;99.90;;;;;;4934753;29;20036;-78
2021/10/23 02:13:45;;;;;;;4.90;3.35;;;8.40;99.90;;;;;;4933625;29;20035;-78
2021/10/23 02:16:12;;;;;;;2.05;1.77;;;8.40;99.90;;;;;;4934505;29;20048;-78
2021/10/23 02:18:38;;;;;;;3.75;2.60;;;8.40;99.90;;;;;;4936036;29;20040;-78
2021/10/23 02:21:09;;;;;;;2.55;2.35;;;8.40;99.90;;;;;;4934814;29;20484;-78
2021/10/23 02:23:36;;;;;;;7.22;2.47;;;8.40;99.90;;;;;;4934955;29;20492;-79
2021/10/23 02:26:02;;;;;;;8.65;1.95;;;8.30;99.90;;;;;;4935190;29;20040;-78
2021/10/23 02:28:29;;;;;;;4.15;2.60;;;8.30;99.90;;;;;;4935174;29;20490;-78
2021/10/23 02:30:55;;;;;;;6.88;4.13;;;8.30;99.90;;;;;;4934580;29;20083;-77
2021/10/23 02:33:21;;;;;;;7.30;3.08;;;8.20;99.90;;;;;;4933910;29;20044;-77
2021/10/23 02:35:47;;;;;;;4.40;2.83;;;8.10;99.90;;;;;;4933849;29;20477;-77
2021/10/23 02:38:14;;;;;;;5.53;2.72;;;8.10;99.90;;;;;;4948412;29;20042;-77
2021/10/23 02:40:40;;;;;;;4.53;2.67;;;8.10;99.90;;;;;;4952288;28;20035;-77
2021/10/23 02:43:09;;;;;;;5.40;2.63;;;8.10;99.90;;;;;;4941062;29;20354;-77
2021/10/23 02:45:36;;;;;;;6.88;2.85;;;8.00;99.90;;;;;;4933312;29;20032;-78
2021/10/23 02:48:02;;;;;;;10.73;2.80;;;8.00;99.90;;;;;;4935134;29;20480;-77
2021/10/23 02:50:28;;;;;;;5.32;3.47;;;7.90;99.90;;;;;;4934549;29;20142;-77
2021/10/23 02:52:54;;;;;;;6.18;3.35;;;7.80;99.90;;;;;;4934812;29;20028;-78
2021/10/23 02:55:21;;;;;;;6.40;4.22;;;7.80;99.90;;;;;;4934861;29;20035;-77
2021/10/23 02:57:48;;;;;;;7.70;4.57;;;7.70;99.90;;;;;;4934156;29;20040;-77
2021/10/23 03:00:15;;;;;;;12.07;5.70;;;7.70;99.90;;;;;;4933793;29;20046;-77
2021/10/23 03:02:42;;;;;;;6.15;4.55;;;7.60;99.90;;;;;;4934418;29;20040;-77
2021/10/23 03:05:08;;;;;;;8.57;4.20;;;7.50;99.90;;;;;;4949285;28;20035;-77
2021/10/23 03:07:34;;;;;;;6.07;4.50;;;7.60;99.90;;;;;;4937414;29;20055;-77
2021/10/23 03:10:02;;;;;;;7.57;4.55;;;7.50;99.90;;;;;;4953270;28;20578;-77
2021/10/23 03:12:28;;;;;;;6.85;3.20;;;7.50;99.90;;;;;;4938742;29;20062;-77
2021/10/23 03:14:55;;;;;;;4.18;3.78;;;7.50;99.90;;;;;;4938784;29;20035;-77
2021/10/23 03:17:21;;;;;;;7.68;4.03;;;7.40;99.90;;;;;;4938566;29;20051;-77
2021/10/23 03:19:48;;;;;;;4.88;3.70;;;7.30;99.90;;;;;;4952598;29;20127;-76
2021/10/23 03:22:14;;;;;;;5.45;4.40;;;7.30;99.90;;;;;;4955829;29;20046;-77
2021/10/23 03:24:40;;;;;;;5.85;3.92;;;7.20;99.90;;;;;;4967582;28;20046;-76
2021/10/23 03:27:06;;;;;;;7.60;4.55;;;7.10;99.90;;;;;;4964178;28;20051;-77
2021/10/23 03:29:32;;;;;;;12.13;4.88;;;7.10;99.90;;;;;;4941150;29;20050;-77
2021/10/23 03:31:59;;;;;;;7.38;5.50;;;7.10;99.90;;;;;;4939305;29;20047;-79
2021/10/23 03:34:25;;;;;;;5.88;5.15;;;7.10;99.90;;;;;;4940717;29;20039;-80
2021/10/23 03:36:51;;;;;;;10.48;5.38;;;7.00;99.90;;;;;;4953701;28;20043;-79
2021/10/23 03:39:19;;;;;;;5.60;4.15;;;6.90;99.90;;;;;;4938713;29;20055;-78
2021/10/23 03:41:45;;;;;;;10.00;4.65;;;6.90;99.90;;;;;;4937687;29;20028;-78
2021/10/23 03:44:11;;;;;;;7.40;4.22;;;6.80;99.90;;;;;;4938692;29;20480;-78
2021/10/23 03:46:38;;;;;;;6.68;4.13;;;6.80;99.90;;;;;;4953010;28;20437;-78
2021/10/23 03:49:05;;;;;;;5.65;4.15;;;6.70;99.90;;;;;;4938219;29;20028;-78
2021/10/23 03:51:31;;;;;;;9.02;6.50;;;6.70;99.90;;;;;;4953168;28;20051;-76
2021/10/23 03:53:58;;;;;;;10.75;5.65;;;6.60;99.90;;;;;;4937891;29;20584;-76
2021/10/23 03:56:24;;;;;;;11.57;5.88;;;6.50;99.90;;;;;;4952228;28;20044;-76
2021/10/23 03:58:51;;;;;;;9.43;5.90;;;6.50;99.90;;;;;;4936695;29;20058;-76
2021/10/23 04:01:17;;;;;;;7.03;5.28;;;6.50;99.90;;;;;;4951844;28;20485;-75
2021/10/23 04:03:43;;;;;;;7.90;5.75;;;6.50;99.90;;;;;;4952878;28;20043;-76
2021/10/23 04:06:10;;;;;;;6.57;5.63;;;6.50;99.90;;;;;;4937308;29;20035;-75
2021/10/23 04:08:36;;;;;;;11.35;5.97;;;6.40;99.90;;;;;;4937408;29;20400;-76
2021/10/23 04:11:02;;;;;;;9.20;6.80;;;6.40;99.90;;;;;;4936801;29;20489;-76
2021/10/23 04:13:28;;;;;;;11.88;7.03;;;6.40;99.90;;;;;;4938453;29;20047;-76
2021/10/23 04:15:55;;;;;;;6.78;6.13;;;6.40;99.90;;;;;;4952911;29;20039;-77
2021/10/23 04:18:21;;;;;;;11.13;6.60;;;6.40;99.90;;;;;;4955113;28;20047;-77
2021/10/23 04:20:47;;;;;;;7.68;6.97;;;6.30;99.90;;;;;;4941169;29;20055;-77
2021/10/23 04:23:13;;;;;;;9.93;7.68;;;6.30;99.90;;;;;;4937111;29;20042;-77
2021/10/23 04:25:40;;;;;;;8.13;6.55;;;6.30;99.90;;;;;;4937001;29;20049;-77
2021/10/23 04:28:06;;;;;;;14.07;7.00;;;6.20;99.90;;;;;;4935776;29;20044;-77
2021/10/23 04:30:32;;;;;;;7.03;6.13;;;6.20;99.90;;;;;;4951689;28;20059;-77
2021/10/23 04:32:59;;;;;;;7.93;6.85;;;6.20;99.90;;;;;;4944008;29;20622;-77
2021/10/23 04:35:25;;;;;;;7.60;6.55;;;6.20;99.90;;;;;;4956762;28;20039;-78
2021/10/23 04:37:51;;;;;;;10.68;6.90;;;6.20;99.90;;;;;;4936679;29;20043;-78
2021/10/23 04:40:17;;;;;;;7.32;6.60;;;6.20;99.90;;;;;;4951546;29;20058;-77
2021/10/23 04:42:44;;;;;;;11.05;7.07;;;6.20;99.90;;;;;;4936889;29;20035;-78
2021/10/23 04:45:11;;;;;;;11.75;6.65;;;6.10;99.90;;;;;;4946372;29;20042;-76
2021/10/23 04:47:38;;;;;;;15.57;7.25;;;6.10;99.90;;;;;;4954121;29;20039;-78
2021/10/23 04:50:04;;;;;;;13.30;6.57;;;6.00;99.90;;;;;;4949073;29;20047;-78
2021/10/23 04:52:31;;;;;;;10.15;6.60;;;6.00;99.90;;;;;;4955952;28;20469;-77
2021/10/23 04:54:57;;;;;;;9.15;6.72;;;6.00;99.90;;;;;;4937500;29;20035;-76
2021/10/23 04:57:23;;;;;;;10.82;6.75;;;6.00;99.90;;;;;;4938877;29;20048;-78
2021/10/23 04:59:49;;;;;;;7.88;6.65;;;6.00;99.90;;;;;;4936908;29;20051;-78
2021/10/23 05:02:15;;;;;;;9.85;6.88;;;5.90;99.90;;;;;;4939922;29;20032;-77
2021/10/23 05:04:42;;;;;;;14.77;6.78;;;6.00;99.90;;;;;;4941085;29;20043;-77
2021/10/23 05:07:08;;;;;;;6.28;5.68;;;5.90;99.90;;;;;;4937912;29;20040;-78
2021/10/23 05:09:34;;;;;;;7.00;6.22;;;5.90;99.90;;;;;;4951581;28;20043;-76
2021/10/23 05:12:00;;;;;;;8.50;6.00;;;5.90;99.90;;;;;;4936314;29;20034;-75
2021/10/23 05:14:26;;;;;;;7.40;6.10;;;5.80;99.90;;;;;;4935899;29;20035;-76
2021/10/23 05:16:52;;;;;;;7.00;5.50;;;5.80;99.90;;;;;;4936014;29;20054;-75
2021/10/23 05:19:19;;;;;;;6.57;5.72;;;5.70;99.90;;;;;;4936122;29;20047;-76
2021/10/23 05:21:45;;;;;;;7.05;6.05;;;5.70;99.90;;;;;;4952065;28;20036;-76
2021/10/23 05:24:11;;;;;;;8.65;6.57;;;5.60;99.90;;;;;;4935930;29;20042;-76
2021/10/23 05:26:37;;;;;;;12.05;7.97;;;5.50;99.90;;;;;;4950754;29;20052;-76
2021/10/23 05:29:04;;;;;;;19.27;14.48;;;5.30;99.90;;;;;;4935551;29;20495;-77
2021/10/23 05:31:30;;;;;;;13.93;12.57;;;5.30;99.90;;;;;;4935954;29;20381;-77
2021/10/23 05:33:56;;;;;;;34.72;18.80;;;5.30;99.90;;;;;;4950251;28;20055;-77
2021/10/23 05:36:22;;;;;;;20.65;17.95;;;5.30;99.90;;;;;;4950065;28;20039;-76
2021/10/23 05:38:49;;;;;;;13.82;10.50;;;5.20;99.90;;;;;;4935383;29;20035;-76
2021/10/23 05:41:15;;;;;;;10.57;9.20;;;5.10;99.90;;;;;;4945345;29;20027;-77
2021/10/23 05:43:41;;;;;;;13.80;10.70;;;5.10;99.90;;;;;;4957158;28;20035;-76
2021/10/23 05:46:07;;;;;;;15.93;10.63;;;5.10;99.90;;;;;;4935653;29;20034;-76
2021/10/23 05:48:34;;;;;;;9.75;8.40;;;5.20;99.90;;;;;;4960402;28;20036;-76
2021/10/23 05:51:00;;;;;;;8.98;7.70;;;5.20;99.90;;;;;;4935944;29;20047;-76
2021/10/23 05:53:26;;;;;;;11.93;7.80;;;5.10;99.90;;;;;;4950021;29;20038;-77
2021/10/23 05:55:52;;;;;;;10.05;7.70;;;5.10;99.90;;;;;;4935837;29;20028;-77
2021/10/23 05:58:19;;;;;;;11.65;7.15;;;5.00;99.90;;;;;;4935167;29;20035;-76
2021/10/23 06:00:54;;;;;;;10.50;7.53;;;5.00;99.90;;;;;;4934178;29;20046;-77
2021/10/23 06:03:23;;;;;;;7.80;6.75;;;5.00;99.90;;;;;;4937434;29;20031;-77
2021/10/23 06:05:52;;;;;;;26.20;22.67;;;5.00;99.90;;;;;;4945984;29;20059;-77
2021/10/23 06:08:18;;;;;;;20.60;14.77;;;5.00;99.90;;;;;;4936029;29;20040;-77
2021/10/23 06:10:44;;;;;;;14.50;13.10;;;5.00;99.90;;;;;;4935351;29;20042;-76
2021/10/23 06:13:11;;;;;;;14.63;10.32;;;5.00;99.90;;;;;;4935535;29;20035;-76
2021/10/23 06:15:37;;;;;;;15.90;10.38;;;5.00;99.90;;;;;;4949612;29;20040;-77
2021/10/23 06:18:04;;;;;;;12.38;11.18;;;5.00;99.90;;;;;;4934153;29;20468;-76
2021/10/23 06:20:30;;;;;;;12.63;10.95;;;5.10;99.90;;;;;;4935249;29;20048;-77
2021/10/23 06:22:57;;;;;;;10.85;9.95;;;5.10;99.90;;;;;;4938334;29;20046;-77
2021/10/23 06:25:27;;;;;;;16.73;9.35;;;5.10;99.90;;;;;;4972198;28;20050;-77
2021/10/23 06:27:57;;;;;;;11.27;8.93;;;5.10;99.90;;;;;;4969691;28;20035;-76
2021/10/23 06:34:07;;;;;;;10.13;9.10;;;5.20;99.90;;;;;;4985122;28;20016;-76
2021/10/23 06:36:43;;;;;;;8.90;8.18;;;5.30;99.90;;;;;;4990897;28;20039;-76
2021/10/23 06:39:11;;;;;;;10.00;9.00;;;5.30;99.90;;;;;;4976556;28;20051;-75
2021/10/23 06:41:38;;;;;;;9.20;8.23;;;5.40;99.90;;;;;;4937283;29;20044;-76
2021/10/23 06:44:09;;;;;;;11.40;8.80;;;5.50;99.90;;;;;;4939741;29;20044;-76
2021/10/23 06:46:36;;;;;;;15.07;10.30;;;5.60;99.90;;;;;;4939306;29;20040;-76
2021/10/23 06:49:03;;;;;;;11.18;10.18;;;5.70;99.90;;;;;;4937580;29;20235;-76
2021/10/23 06:51:29;;;;;;;11.07;9.98;;;5.90;99.90;;;;;;4939850;29;20108;-76
2021/10/23 06:53:57;;;;;;;13.90;10.57;;;6.10;99.90;;;;;;4939823;29;20036;-77
2021/10/23 06:56:24;;;;;;;12.27;10.73;;;6.30;99.90;;;;;;4943704;29;20046;-76
2021/10/23 06:58:51;;;;;;;13.00;9.27;;;6.60;99.90;;;;;;4947966;29;20404;-76
2021/10/23 07:01:19;;;;;;;14.98;9.65;;;6.70;99.90;;;;;;4957540;28;20047;-76
2021/10/23 07:03:45;;;;;;;9.27;7.75;;;6.80;99.90;;;;;;4939312;29;20040;-77
2021/10/23 07:06:12;;;;;;;11.32;7.75;;;6.80;99.90;;;;;;4940078;29;20036;-77
2021/10/23 07:08:38;;;;;;;10.77;7.75;;;6.90;99.90;;;;;;4942389;29;20051;-76
2021/10/23 07:11:05;;;;;;;9.20;8.23;;;6.90;99.90;;;;;;4953477;28;20050;-78
2021/10/23 07:13:31;;;;;;;9.35;7.45;;;7.00;99.90;;;;;;4938026;29;20676;-77
2021/10/23 07:15:57;;;;;;;7.22;6.63;;;7.10;99.90;;;;;;4937700;29;20047;-77
2021/10/23 07:18:24;;;;;;;12.50;7.25;;;7.30;99.90;;;;;;4938576;29;20404;-77
2021/10/23 07:20:50;;;;;;;12.55;7.28;;;7.30;99.90;;;;;;4938329;29;20038;-76
2021/10/23 07:23:25;;;;;;;9.02;6.82;;;7.40;99.90;;;;;;4939893;29;20106;-75
2021/10/23 07:25:51;;;;;;;7.35;6.57;;;7.50;99.90;;;;;;4938710;29;20035;-75
2021/10/23 07:28:18;;;;;;;11.60;6.47;;;7.60;99.90;;;;;;4953779;29;20055;-75
2021/10/23 07:30:44;;;;;;;11.43;6.68;;;7.80;99.90;;;;;;4939895;29;20028;-79
2021/10/23 07:33:10;;;;;;;6.38;5.78;;;7.90;99.90;;;;;;4962575;29;20120;-79
2021/10/23 07:35:36;;;;;;;8.32;6.30;;;8.10;99.90;;;;;;4930617;29;20040;-78
2021/10/23 07:38:03;;;;;;;6.05;5.45;;;8.20;99.90;;;;;;4969601;28;20039;-78
2021/10/23 07:40:29;;;;;;;8.93;6.10;;;8.30;99.90;;;;;;4955062;29;20051;-72
2021/10/23 07:42:56;;;;;;;9.75;5.88;;;8.40;99.90;;;;;;4938925;29;20031;-71
2021/10/23 07:45:22;;;;;;;7.00;5.45;;;8.50;99.90;;;;;;4938386;29;20050;-72
2021/10/23 07:47:49;;;;;;;8.70;5.63;;;8.70;99.90;;;;;;4937819;29;20051;-71
2021/10/23 07:50:15;;;;;;;7.53;5.10;;;9.00;99.90;;;;;;4937884;29;20031;-71
2021/10/23 07:52:42;;;;;;;15.65;6.30;;;9.30;99.90;;;;;;4936856;29;20035;-72
2021/10/23 07:55:09;;;;;;;7.20;5.82;;;9.20;99.90;;;;;;4937508;29;20357;-71
2021/10/23 07:57:39;;;;;;;8.73;6.15;;;9.20;99.90;;;;;;4947601;29;20911;-71
2021/10/23 08:00:07;;;;;;;12.30;5.85;;;9.30;99.90;;;;;;4960584;29;20036;-71
2021/10/23 08:02:55;;;;;;;7.80;6.65;;;9.40;99.90;;;;;;4955598;28;20042;-71
2021/10/23 08:05:23;;;;;;;12.02;6.65;;;9.60;99.90;;;;;;4938523;28;20050;-72
2021/10/23 08:07:52;;;;;;;10.18;5.95;;;9.90;99.90;;;;;;4948245;29;20043;-73
2021/10/23 08:10:19;;;;;;;6.45;5.15;;;9.80;99.90;;;;;;4951148;29;20097;-73
2021/10/23 08:12:46;;;;;;;11.80;5.97;;;9.90;99.70;;;;;;4945320;29;20039;-75
2021/10/23 08:15:13;;;;;;;6.80;5.53;;;9.90;99.40;;;;;;4959930;28;20019;-73
2021/10/23 08:17:40;;;;;;;8.63;5.95;;;9.90;98.90;;;;;;4948677;29;20039;-73
2021/10/23 08:20:07;;;;;;;6.97;5.22;;;9.90;98.80;;;;;;4953954;29;20039;-78
2021/10/23 08:22:34;;;;;;;11.90;5.05;;;9.70;98.80;;;;;;4949129;29;20046;-78
2021/10/23 08:25:03;;;;;;;8.25;5.40;;;9.80;99.50;;;;;;4944660;29;20039;-78
2021/10/23 08:27:33;;;;;;;8.55;5.78;;;9.80;98.60;;;;;;4954340;28;20039;-78
2021/10/23 08:30:01;;;;;;;6.93;4.57;;;9.80;99.10;;;;;;4949296;29;20042;-78
2021/10/23 08:32:27;;;;;;;7.97;6.05;;;10.20;97.70;;;;;;4944173;29;20044;-78
2021/10/23 08:34:55;;;;;;;7.88;5.07;;;10.20;97.10;;;;;;4941824;29;20032;-78
2021/10/23 08:37:22;;;;;;;9.23;6.07;;;10.60;96.30;;;;;;4956367;28;20059;-78
2021/10/23 08:39:49;;;;;;;8.43;5.18;;;10.80;95.80;;;;;;4936456;29;20031;-78
2021/10/23 08:42:19;;;;;;;5.88;5.28;;;11.10;95.10;;;;;;4937964;29;20032;-78
2021/10/23 08:44:46;;;;;;;6.32;4.60;;;11.00;93.60;;;;;;4936611;29;20033;-79
2021/10/23 08:47:14;;;;;;;10.57;5.78;;;10.90;93.80;;;;;;4951152;28;20051;-78
2021/10/23 08:49:43;;;;;;;9.25;5.22;;;10.80;94.00;;;;;;4950980;28;20051;-76
2021/10/23 08:52:10;;;;;;;7.15;5.90;;;10.50;93.80;;;;;;4935659;29;20462;-78
2021/10/23 08:54:38;;;;;;;11.80;4.70;;;10.60;94.40;;;;;;4936874;29;20047;-78
2021/10/23 08:57:04;;;;;;;6.18;5.25;;;11.00;94.40;;;;;;4936527;29;20035;-78
2021/10/23 08:59:30;;;;;;;6.25;5.47;;;11.70;91.50;;;;;;4936979;29;20054;-77
2021/10/23 09:01:58;;;;;;;7.13;5.13;;;11.20;91.80;;;;;;4936964;29;20051;-78
2021/10/23 09:04:29;;;;;;;7.15;5.43;;;11.30;92.20;;;;;;4934203;29;20050;-78
2021/10/23 09:07:06;;;;;;;6.50;5.53;;;11.70;91.60;;;;;;4951278;28;20047;-78
2021/10/23 09:09:53;;;;;;;9.52;5.30;;;11.90;90.80;;;;;;4937707;29;20040;-73
2021/10/23 09:12:25;;;;;;;7.03;4.95;;;12.10;90.00;;;;;;4949737;28;20499;-78
2021/10/23 09:15:09;;;;;;;6.13;4.93;;;12.10;90.00;;;;;;4967750;28;20035;-78
2021/10/23 09:17:35;;;;;;;5.10;4.35;;;12.00;89.00;;;;;;4973305;28;20473;-78
2021/10/23 09:20:07;;;;;;;8.38;5.03;;;11.80;89.00;;;;;;4942385;28;20055;-78
2021/10/23 09:22:45;;;;;;;10.15;4.72;;;11.80;89.90;;;;;;4944656;29;20036;-79
2021/10/23 09:25:20;;;;;;;7.22;4.53;;;11.90;89.70;;;;;;4936928;29;20036;-78
2021/10/23 09:27:55;;;;;;;8.77;6.75;;;12.00;88.70;;;;;;4940739;29;20038;-78
2021/10/23 09:30:39;;;;;;;4.40;4.00;;;12.10;88.80;;;;;;4945678;29;20381;-79
2021/10/23 09:33:14;;;;;;;6.55;4.80;;;12.20;87.90;;;;;;4956954;28;20038;-78
2021/10/23 09:35:43;;;;;;;6.25;4.70;;;12.10;88.10;;;;;;4950864;29;20035;-78
2021/10/23 09:38:11;;;;;;;8.90;5.47;;;12.20;86.10;;;;;;4947079;29;20046;-79
2021/10/23 09:40:39;;;;;;;6.00;5.43;;;12.20;86.70;;;;;;4939115;29;20032;-79
2021/10/23 09:43:09;;;;;;;5.93;4.80;;;11.80;86.00;;;;;;4978201;28;20051;-78
2021/10/23 09:45:37;;;;;;;8.90;4.28;;;12.00;87.80;;;;;;4946442;29;20027;-78
2021/10/23 09:48:08;;;;;;;5.97;4.60;;;12.00;86.00;;;;;;4962762;28;20031;-79
2021/10/23 09:50:34;;;;;;;;;;;12.20;86.70;;;;;;4936436;29;20028;-79
2021/10/23 09:53:09;;;;;;;4.35;3.88;;;12.10;84.40;;;;;;4935316;29;20343;-79
2021/10/23 09:55:51;;;;;;;6.70;4.40;;;12.00;85.60;;;;;;4936020;29;20040;-79
2021/10/23 09:58:25;;;;;;;5.82;3.75;;;12.10;85.10;;;;;;4951993;28;20035;-79
2021/10/23 10:00:56;;;;;;;5.10;3.83;;;12.20;85.30;;;;;;4964405;28;20040;-79
2021/10/23 10:03:28;;;;;;;5.97;3.63;;;12.40;85.10;;;;;;4950991;29;20028;-79
2021/10/23 10:06:00;;;;;;;4.03;3.45;;;12.50;83.50;;;;;;4953631;29;20031;-80
2021/10/23 10:08:27;;;;;;;3.90;3.38;;;12.30;82.90;;;;;;4950107;29;20039;-79
2021/10/23 10:10:55;;;;;;;6.63;4.03;;;12.50;84.60;;;;;;4937385;29;20032;-77
2021/10/23 10:13:24;;;;;;;4.78;4.32;;;12.40;82.70;;;;;;4949155;29;20046;-80
2021/10/23 10:15:51;;;;;;;4.32;3.53;;;12.30;83.40;;;;;;4939710;28;20035;-76
2021/10/23 10:18:20;;;;;;;6.38;4.07;;;12.20;83.90;;;;;;4942425;29;20106;-80
2021/10/23 10:20:49;;;;;;;7.57;4.45;;;12.30;84.30;;;;;;4961027;29;20027;-81
2021/10/23 10:23:33;;;;;;;5.15;3.33;;;12.60;84.00;;;;;;4949673;29;20465;-82
2021/10/23 10:26:36;;;;;;;6.72;4.00;;;12.70;81.50;;;;;;4950596;29;20031;-82
2021/10/23 10:32:21;;;;;;;4.03;2.45;;;12.50;82.20;;;;;;4943012;29;20055;-80
2021/10/23 10:42:57;;;;;;;4.13;3.03;;;12.20;81.00;;;;;;4938890;29;20044;-82
2021/10/23 10:45:34;;;;;;;6.45;3.05;;;12.00;82.60;;;;;;4923388;29;20170;-81
2021/10/23 10:48:22;;;;;;;7.22;3.67;;;12.20;83.00;;;;;;4939810;29;20140;-74
2021/10/23 10:50:53;;;;;;;9.95;3.50;;;12.30;80.50;;;;;;4887853;29;20047;-78
2021/10/23 10:53:30;;;;;;;3.75;2.53;;;12.10;81.30;;;;;;4923230;29;20040;-77
2021/10/23 10:55:59;;;;;;;2.92;2.60;;;12.50;81.00;;;;;;4931120;29;20039;-77
2021/10/23 10:58:57;;;;;;;4.28;2.30;;;13.10;78.60;;;;;;4932883;29;20056;-77
2021/10/23 11:01:25;;;;;;;2.63;1.70;;;13.20;76.50;;;;;;4933896;29;20043;-75
2021/10/23 11:03:51;;;;;;;2.30;2.08;;;13.00;75.80;;;;;;4934880;29;20044;-75
2021/10/23 11:06:38;;;;;;;3.13;1.92;;;12.90;75.80;;;;;;4946938;29;20481;-76
2021/10/23 11:14:24;;;;;;;7.88;2.85;;;12.30;76.30;;;;;;4935775;29;20492;-76
2021/10/23 11:16:57;;;;;;;4.68;2.90;;;12.20;77.60;;;;;;4934794;29;20153;-76
2021/10/23 11:19:24;;;;;;;3.38;2.40;;;12.10;77.30;;;;;;4935115;29;20051;-76
2021/10/23 11:21:55;;;;;;;7.10;2.50;;;12.10;78.20;;;;;;4950047;29;20051;-77
2021/10/23 11:24:22;;;;;;;5.55;3.50;;;12.10;78.00;;;;;;4936274;29;20036;-76
2021/10/23 11:26:53;;;;;;;4.63;3.00;;;12.00;78.40;;;;;;4944649;28;20035;-77
2021/10/23 11:29:25;;;;;;;3.53;2.60;;;12.00;77.10;;;;;;4963168;28;20046;-77
2021/10/23 11:31:52;;;;;;;3.13;2.13;;;12.00;76.60;;;;;;4946146;29;20477;-76
2021/10/23 11:34:22;;;;;;;6.40;3.33;;;12.00;76.70;;;;;;4948475;29;20034;-76
2021/10/23 11:37:10;;;;;;;3.08;2.25;;;12.00;77.30;;;;;;4951480;29;20044;-76
2021/10/23 11:40:01;;;;;;;10.45;2.55;;;12.10;76.90;;;;;;4938385;29;20035;-75
2021/10/23 11:42:33;;;;;;;4.30;2.50;;;12.20;76.50;;;;;;4953779;29;20059;-77
2021/10/23 11:45:16;;;;;;;3.92;2.30;;;12.30;76.20;;;;;;4938459;29;20050;-76
2021/10/23 11:47:46;;;;;;;9.63;2.38;;;12.30;75.80;;;;;;4953384;28;20050;-76
2021/10/23 11:50:24;;;;;;;4.28;2.42;;;12.10;75.10;;;;;;4938641;29;20048;-77
2021/10/23 11:53:10;;;;;;;6.82;2.65;;;12.10;75.70;;;;;;4937826;29;20495;-76
2021/10/23 11:55:39;;;;;;;3.35;2.45;;;12.00;75.30;;;;;;4945628;29;20042;-77
2021/10/23 11:58:08;;;;;;;3.92;3.40;;;12.10;76.20;;;;;;4939065;29;20032;-77
2021/10/23 12:00:37;;;;;;;4.25;3.65;;;12.20;75.60;;;;;;4947263;29;20036;-75
2021/10/23 12:03:08;;;;;;;7.22;4.03;;;12.20;74.50;;;;;;4944864;29;20031;-75
2021/10/23 12:05:39;;;;;;;6.57;3.33;;;12.30;74.40;;;;;;4944630;29;20032;-76
2021/10/23 12:08:15;;;;;;;3.15;2.45;;;12.30;73.50;;;;;;4941626;29;20031;-75
2021/10/23 12:11:12;;;;;;;6.68;2.70;;;12.40;73.30;;;;;;4940601;29;20040;-76
2021/10/23 12:13:50;;;;;;;3.80;2.80;;;12.50;73.30;;;;;;4944444;29;20051;-75
2021/10/23 12:16:38;;;;;;;3.55;2.60;;;12.70;72.60;;;;;;4944944;29;20051;-75
2021/10/23 12:19:07;;;;;;;12.18;2.70;;;13.10;71.70;;;;;;4943077;29;20055;-77
2021/10/23 12:21:52;;;;;;;6.15;2.45;;;13.20;70.10;;;;;;4946666;29;20036;-76
2021/10/23 12:24:24;;;;;;;4.50;2.60;;;13.20;69.90;;;;;;4950437;29;20031;-76
2021/10/23 12:27:01;;;;;;;8.40;2.55;;;13.00;70.40;;;;;;4947987;29;20042;-76
2021/10/23 12:29:44;;;;;;;4.07;2.50;;;12.70;72.50;;;;;;4954730;29;20043;-75
2021/10/23 12:32:16;;;;;;;5.40;2.80;;;12.90;72.00;;;;;;4941775;29;20047;-76
2021/10/23 12:34:51;;;;;;;5.22;3.08;;;12.90;70.70;;;;;;4952697;29;20205;-76
2021/10/23 12:37:27;;;;;;;2.97;2.25;;;12.80;70.40;;;;;;4943965;28;20051;-76
2021/10/23 12:40:25;;;;;;;3.03;1.90;;;12.70;69.10;;;;;;4945960;29;20147;-75
2021/10/23 12:42:59;;;;;;;4.63;2.25;;;12.60;68.80;;;;;;4939677;28;20130;-76
2021/10/23 12:45:33;;;;;;;10.27;7.47;;;12.60;69.00;;;;;;4938590;29;20036;-75
2021/10/23 12:48:03;;;;;;;3.95;2.42;;;12.60;69.90;;;;;;4928687;28;20043;-76
2021/10/23 12:50:30;;;;;;;6.68;2.65;;;12.60;68.50;;;;;;4943103;28;20043;-76
2021/10/23 12:52:58;;;;;;;3.75;1.65;;;12.50;67.50;;;;;;4935592;29;20035;-76
2021/10/23 12:55:25;;;;;;;6.75;1.88;;;12.50;67.60;;;;;;4937006;29;20083;-75
2021/10/23 12:57:52;;;;;;;2.05;1.55;;;12.40;67.90;;;;;;4944970;29;20043;-76
2021/10/23 13:00:18;;;;;;;2.33;1.92;;;12.40;69.10;;;;;;4948711;29;20055;-76
2021/10/23 13:02:45;;;;;;;6.10;2.55;;;12.30;68.70;;;;;;4935555;29;20051;-76
2021/10/23 13:05:13;;;;;;;3.80;1.77;;;12.40;69.90;;;;;;4934974;29;20314;-75
2021/10/23 13:07:39;;;;;;;3.00;1.60;;;12.30;67.70;;;;;;4935935;29;20051;-75
2021/10/23 13:10:08;;;;;;;2.88;1.55;;;12.30;68.30;;;;;;4937419;29;20106;-76
2021/10/23 13:12:36;;;;;;;2.08;1.77;;;12.30;69.10;;;;;;4937162;29;20429;-75
2021/10/23 13:15:04;;;;;;;8.20;5.43;;;12.30;69.40;;;;;;4953594;29;20047;-75
2021/10/23 13:17:31;;;;;;;3.95;2.60;;;12.30;70.70;;;;;;4956439;28;20048;-75
2021/10/23 13:19:57;;;;;;;4.22;2.10;;;12.30;70.70;;;;;;4945262;29;20354;-74